createdAt,value
2022-12-02T00:04:22.926Z,85.70
2022-12-02T00:12:34.848Z,85.70
2022-12-02T00:20:40.229Z,85.40
2022-12-02T00:28:48.138Z,85.30
2022-12-02T00:36:53.451Z,85.60
2022-12-02T00:45:13.681Z,85.60
2022-12-02T00:53:19.021Z,85.20
2022-12-02T01:01:27.805Z,85.20
2022-12-02T01:09:33.269Z,85.60
2022-12-02T01:17:41.333Z,85.80
2022-12-02T01:25:46.793Z,85.60
2022-12-02T01:33:54.661Z,85.40
2022-12-02T01:42:00.071Z,85.20
2022-12-02T01:50:09.598Z,85.70
2022-12-02T01:58:15.757Z,85.80
2022-12-02T02:06:24.137Z,86.10
2022-12-02T02:14:29.627Z,86.40
2022-12-02T02:22:43.898Z,86.80
2022-12-02T02:30:52.254Z,86.70
2022-12-02T02:38:58.159Z,86.60
2022-12-02T02:47:06.730Z,86.80
2022-12-02T02:55:13.956Z,87.00
2022-12-02T03:03:24.694Z,87.70
2022-12-02T03:11:31.301Z,89.00
2022-12-02T03:19:39.958Z,88.20
2022-12-02T03:27:45.434Z,88.10
2022-12-02T03:35:53.793Z,87.80
2022-12-02T03:44:00.233Z,87.90
2022-12-02T03:52:08.569Z,88.00
2022-12-02T04:00:16.513Z,87.70
2022-12-02T04:08:24.541Z,87.60
2022-12-02T04:16:29.840Z,87.80
2022-12-02T04:24:37.749Z,88.30
2022-12-02T04:32:43.113Z,87.80
2022-12-02T04:40:50.966Z,87.40
2022-12-02T04:48:56.255Z,87.10
2022-12-02T04:57:04.118Z,86.70
2022-12-02T05:05:10.686Z,86.40
2022-12-02T05:13:19.010Z,86.70
2022-12-02T05:21:24.591Z,87.20
2022-12-02T05:29:32.750Z,87.60
2022-12-02T05:37:43.778Z,87.80
2022-12-02T05:45:56.611Z,88.00
2022-12-02T05:54:02.242Z,87.50
2022-12-02T06:02:25.391Z,87.30
2022-12-02T06:10:32.434Z,87.60
2022-12-02T06:18:43.098Z,87.60
2022-12-02T06:26:48.405Z,87.10
2022-12-02T06:34:56.782Z,87.50
2022-12-02T06:43:03.734Z,87.90
2022-12-02T06:51:19.185Z,87.50
2022-12-02T06:59:26.206Z,87.20
2022-12-02T07:07:35.792Z,86.80
2022-12-02T07:15:41.418Z,87.70
2022-12-02T07:23:49.349Z,87.20
2022-12-02T07:31:54.765Z,87.10
2022-12-02T07:40:02.803Z,86.60
2022-12-02T07:48:08.923Z,86.20
2022-12-02T07:56:17.082Z,87.00
2022-12-02T08:04:25.041Z,86.60
2022-12-02T08:12:33.038Z,88.60
2022-12-02T08:20:38.368Z,87.40
2022-12-02T08:28:50.859Z,88.10
2022-12-02T08:36:59.155Z,87.30
2022-12-02T10:22:25.640Z,83.00
2022-12-02T10:30:31.871Z,82.70
2022-12-02T10:38:47.455Z,82.40
2022-12-02T10:46:52.849Z,82.40
2022-12-02T10:55:03.557Z,82.60
2022-12-02T11:03:09.603Z,82.80
2022-12-02T11:11:39.233Z,82.70
2022-12-02T11:19:49.733Z,82.60
2022-12-02T11:28:34.009Z,81.40
2022-12-02T11:36:39.624Z,80.00
2022-12-02T11:44:47.589Z,78.80
2022-12-02T11:52:56.781Z,77.20
2022-12-02T12:01:16.486Z,76.00
2022-12-02T12:09:21.936Z,77.30
2022-12-02T12:17:48.897Z,77.40
2022-12-02T12:25:54.334Z,77.90
2022-12-02T12:34:02.505Z,77.40
2022-12-02T12:42:10.300Z,78.10
2022-12-02T12:50:18.764Z,79.40
2022-12-02T12:58:26.673Z,79.90
2022-12-02T13:06:41.802Z,80.00
2022-12-02T13:14:50.080Z,80.40
2022-12-02T13:23:03.689Z,80.10
2022-12-02T13:31:09.243Z,80.50
2022-12-02T13:39:17.599Z,80.60
2022-12-02T13:47:22.972Z,81.30
2022-12-02T13:55:30.983Z,82.00
2022-12-02T14:03:37.179Z,81.50
2022-12-02T14:11:46.769Z,81.60
2022-12-02T14:19:54.057Z,81.80
2022-12-02T14:28:02.801Z,81.60
2022-12-02T14:36:08.616Z,82.40
2022-12-02T14:44:16.548Z,82.70
2022-12-02T14:52:22.899Z,83.00
2022-12-02T15:00:30.865Z,83.20
2022-12-02T15:08:36.254Z,83.20
2022-12-02T15:16:44.502Z,83.70
2022-12-02T15:24:50.096Z,84.00
2022-12-02T15:32:58.394Z,84.00
2022-12-02T15:41:03.932Z,84.00
2022-12-02T15:49:18.886Z,84.40
2022-12-02T15:57:24.236Z,84.50
2022-12-02T16:05:32.984Z,84.40
2022-12-02T16:13:40.028Z,84.90
2022-12-02T16:21:48.120Z,84.80
2022-12-02T16:29:56.045Z,85.00
2022-12-02T16:38:04.955Z,85.10
2022-12-02T16:46:12.191Z,84.90
2022-12-02T16:54:20.175Z,84.90
2022-12-02T17:02:31.778Z,85.00
2022-12-02T17:10:40.214Z,85.20
2022-12-02T17:18:45.634Z,85.20
2022-12-02T17:26:55.908Z,85.50
2022-12-02T17:35:01.448Z,86.00
2022-12-02T17:43:09.794Z,85.70
2022-12-02T17:51:16.585Z,86.20
2022-12-02T17:59:24.578Z,86.40
2022-12-02T18:07:31.342Z,86.40
2022-12-02T18:15:39.740Z,86.50
2022-12-02T18:23:45.200Z,86.30
2022-12-02T18:31:53.162Z,86.20
2022-12-02T18:39:59.169Z,86.10
2022-12-02T18:48:07.201Z,86.10
2022-12-02T18:56:12.729Z,86.30
2022-12-02T19:04:21.206Z,86.60
2022-12-02T19:12:42.504Z,86.70
2022-12-02T19:20:50.666Z,86.80
2022-12-02T19:28:56.018Z,86.80
2022-12-02T19:37:04.793Z,87.80
2022-12-02T19:45:12.810Z,88.70
2022-12-02T19:53:20.878Z,88.90
2022-12-02T20:01:26.455Z,89.10
2022-12-02T20:09:34.614Z,89.50
2022-12-02T20:17:40.135Z,89.60
2022-12-02T20:25:49.096Z,90.00
2022-12-02T20:33:54.491Z,89.80
2022-12-02T20:42:02.663Z,89.70
2022-12-02T20:50:09.432Z,89.50
2022-12-02T20:58:17.572Z,89.70
2022-12-02T21:06:22.975Z,89.20
2022-12-02T21:14:31.222Z,89.30
2022-12-02T21:22:36.520Z,89.40
2022-12-02T21:30:44.619Z,89.20
2022-12-02T21:38:50.764Z,88.60
2022-12-02T21:47:01.118Z,88.40
2022-12-02T21:55:07.768Z,88.30
2022-12-02T22:03:15.822Z,89.00
2022-12-02T22:11:22.575Z,88.40
2022-12-02T22:19:30.692Z,87.60
2022-12-02T22:27:36.116Z,87.70
2022-12-02T22:35:43.963Z,87.50
2022-12-02T22:43:49.833Z,87.60
2022-12-02T22:52:00.077Z,87.50
2022-12-02T23:00:07.836Z,87.70
2022-12-02T23:08:16.215Z,87.70
2022-12-02T23:16:21.856Z,87.70
2022-12-02T23:24:29.930Z,88.00
2022-12-02T23:32:35.394Z,87.80
2022-12-02T23:40:43.737Z,87.40
2022-12-02T23:48:49.073Z,87.70
2022-12-02T23:56:57.053Z,87.70
